Time;durP1;ratioP1;P1;durP2;ratioP2;P2;SDS_P1;SDS_P2;PMS_P1;PMS_P2;Temp;Humidity;BMP_temperature;BMP_pressure;BME280_temperature;BME280_humidity;BME280_pressure;Samples;Min_cycle;Max_cycle;Signal;HPM_P1;HPM_P2
2023/10/16 00:01:09;;;;;;;1.17;1.08;;;;;;;;;;5058681;28;20205;-64
2023/10/16 00:03:38;;;;;;;1.20;1.10;;;;;;;;;;5057761;28;20264;-64
2023/10/16 00:06:07;;;;;;;1.10;1.00;;;;;;;;;;5058741;28;20213;-64
2023/10/16 00:08:35;;;;;;;1.30;1.17;;;;;;;;;;5058275;28;20213;-64
2023/10/16 00:11:05;;;;;;;1.30;1.20;;;;;;;;;;5058048;28;20215;-64
2023/10/16 00:13:37;;;;;;;1.10;1.00;;;;;;;;;;5058264;28;20280;-64
2023/10/16 00:16:04;;;;;;;1.13;1.02;;;;;;;;;;5058188;28;20205;-64
2023/10/16 00:18:34;;;;;;;1.30;1.20;;;;;;;;;;5058139;28;20664;-64
2023/10/16 00:21:04;;;;;;;1.40;1.30;;;;;;;;;;5057968;28;20271;-64
2023/10/16 00:23:37;;;;;;;1.30;1.20;;;;;;;;;;5058177;28;20229;-64
2023/10/16 00:26:07;;;;;;;1.00;0.90;;;;;;;;;;5057968;28;20259;-64
2023/10/16 00:28:34;;;;;;;1.00;1.00;;;;;;;;;;5058051;28;20205;-64
2023/10/16 00:31:03;;;;;;;1.10;1.00;;;;;;;;;;5057859;28;20561;-64
2023/10/16 00:33:33;;;;;;;1.30;1.20;;;;;;;;;;5057797;28;20212;-64
2023/10/16 00:36:01;;;;;;;1.27;1.17;;;;;;;;;;5057700;28;20212;-64
2023/10/16 00:38:36;;;;;;;1.48;1.20;;;;;;;;;;5057933;28;20204;-64
2023/10/16 00:41:15;;;;;;;1.15;1.05;;;;;;;;;;5057716;28;20258;-64
2023/10/16 00:43:45;;;;;;;1.10;1.00;;;;;;;;;;5057929;28;20224;-64
2023/10/16 00:46:18;;;;;;;1.08;0.93;;;;;;;;;;5057823;28;20205;-64
2023/10/16 00:48:46;;;;;;;1.30;1.17;;;;;;;;;;5057748;28;20299;-64
2023/10/16 00:51:16;;;;;;;1.25;1.15;;;;;;;;;;5057844;28;20575;-64
2023/10/16 00:53:45;;;;;;;1.20;1.10;;;;;;;;;;5057327;28;20341;-64
2023/10/16 00:56:13;;;;;;;1.35;1.05;;;;;;;;;;5057739;28;20215;-64
2023/10/16 00:58:42;;;;;;;1.17;0.90;;;;;;;;;;5057567;28;20212;-64
2023/10/16 01:01:12;;;;;;;1.23;1.13;;;;;;;;;;5057498;28;20500;-64
2023/10/16 01:03:41;;;;;;;0.90;0.90;;;;;;;;;;5057743;28;20637;-64
2023/10/16 01:06:16;;;;;;;1.35;1.25;;;;;;;;;;5058059;28;20625;-64
2023/10/16 01:08:46;;;;;;;1.02;0.98;;;;;;;;;;5056598;28;20220;-64
2023/10/16 01:11:15;;;;;;;0.98;0.90;;;;;;;;;;5057582;28;20473;-64
2023/10/16 01:13:44;;;;;;;1.30;1.20;;;;;;;;;;5057459;28;20201;-64
2023/10/16 01:16:13;;;;;;;1.08;1.00;;;;;;;;;;5057326;28;20205;-64
2023/10/16 01:18:40;;;;;;;1.20;1.10;;;;;;;;;;5057582;28;20219;-64
2023/10/16 01:21:09;;;;;;;1.33;1.20;;;;;;;;;;5057497;28;20358;-64
2023/10/16 01:23:37;;;;;;;1.15;1.00;;;;;;;;;;5057110;28;20327;-64
2023/10/16 01:26:06;;;;;;;1.20;1.10;;;;;;;;;;5057509;28;20208;-64
2023/10/16 01:28:34;;;;;;;1.40;1.27;;;;;;;;;;5056918;28;20266;-64
2023/10/16 01:31:01;;;;;;;1.17;1.08;;;;;;;;;;5057145;28;20205;-64
2023/10/16 01:33:30;;;;;;;1.10;1.00;;;;;;;;;;5057213;28;20583;-64
2023/10/16 01:35:57;;;;;;;1.10;1.00;;;;;;;;;;5056881;28;20205;-64
2023/10/16 01:38:26;;;;;;;1.35;1.10;;;;;;;;;;5057263;28;20236;-64
2023/10/16 01:43:43;;;;;;;1.02;1.00;;;;;;;;;;5057043;28;20224;-64
2023/10/16 01:46:12;;;;;;;1.55;1.10;;;;;;;;;;5057354;28;20205;-64
2023/10/16 01:48:41;;;;;;;1.15;1.05;;;;;;;;;;5057396;28;20243;-64
2023/10/16 01:51:09;;;;;;;1.73;1.00;;;;;;;;;;5057081;28;20213;-64
2023/10/16 01:53:39;;;;;;;1.05;1.00;;;;;;;;;;5056868;28;20228;-64
2023/10/16 01:56:13;;;;;;;1.77;1.08;;;;;;;;;;5057260;28;20231;-64
2023/10/16 01:58:41;;;;;;;0.90;0.90;;;;;;;;;;5057038;28;20266;-64
2023/10/16 02:01:10;;;;;;;0.85;0.85;;;;;;;;;;5056936;28;20483;-64
2023/10/16 02:03:37;;;;;;;1.73;0.90;;;;;;;;;;5057073;28;20594;-64
2023/10/16 02:06:05;;;;;;;0.98;0.90;;;;;;;;;;5057160;28;20565;-64
2023/10/16 02:08:33;;;;;;;1.00;0.90;;;;;;;;;;5057174;28;20535;-64
2023/10/16 02:11:02;;;;;;;1.08;0.95;;;;;;;;;;5056968;28;20255;-64
2023/10/16 02:13:35;;;;;;;2.30;1.00;;;;;;;;;;5056923;28;20202;-64
2023/10/16 02:16:03;;;;;;;0.88;0.80;;;;;;;;;;5056728;28;20308;-64
2023/10/16 02:18:36;;;;;;;0.90;0.90;;;;;;;;;;5056728;28;20205;-64
2023/10/16 02:21:04;;;;;;;1.02;0.93;;;;;;;;;;5057504;28;20216;-64
2023/10/16 02:23:32;;;;;;;1.10;1.00;;;;;;;;;;5060619;28;20244;-63
2023/10/16 02:26:01;;;;;;;1.00;0.90;;;;;;;;;;5060418;28;20205;-63
2023/10/16 02:28:31;;;;;;;0.93;0.90;;;;;;;;;;5059810;28;20244;-63
2023/10/16 02:31:10;;;;;;;1.00;0.90;;;;;;;;;;5059969;28;20255;-63
2023/10/16 02:33:38;;;;;;;1.10;1.00;;;;;;;;;;5060457;28;20537;-63
2023/10/16 02:36:07;;;;;;;0.90;0.90;;;;;;;;;;5060071;28;20209;-64
2023/10/16 02:38:34;;;;;;;1.27;0.90;;;;;;;;;;5060264;28;20231;-64
2023/10/16 02:41:03;;;;;;;1.00;0.90;;;;;;;;;;5060518;28;20205;-64
2023/10/16 02:43:30;;;;;;;1.15;0.82;;;;;;;;;;5059735;28;20229;-64
2023/10/16 02:46:04;;;;;;;0.75;0.75;;;;;;;;;;5060030;28;20205;-64
2023/10/16 02:48:32;;;;;;;0.85;0.85;;;;;;;;;;5059799;28;20212;-64
2023/10/16 02:51:00;;;;;;;0.80;0.80;;;;;;;;;;5059468;28;20205;-64
2023/10/16 02:53:33;;;;;;;1.77;1.00;;;;;;;;;;5059579;28;20212;-64
2023/10/16 02:56:05;;;;;;;1.20;1.10;;;;;;;;;;5059351;28;20625;-64
2023/10/16 02:58:33;;;;;;;1.50;1.10;;;;;;;;;;5059699;28;20212;-64
2023/10/16 03:01:06;;;;;;;1.13;1.02;;;;;;;;;;5059977;28;20249;-63
2023/10/16 03:03:34;;;;;;;1.15;1.05;;;;;;;;;;5059270;28;20229;-63
2023/10/16 03:06:03;;;;;;;0.73;0.73;;;;;;;;;;5059430;28;20205;-63
2023/10/16 03:08:31;;;;;;;0.93;0.93;;;;;;;;;;5059420;28;20205;-63
2023/10/16 03:10:59;;;;;;;1.00;0.90;;;;;;;;;;5059366;28;20204;-63
2023/10/16 03:13:26;;;;;;;1.00;1.00;;;;;;;;;;5059442;28;20241;-63
2023/10/16 03:16:05;;;;;;;1.15;1.02;;;;;;;;;;5059222;28;20270;-63
2023/10/16 03:18:34;;;;;;;1.08;0.98;;;;;;;;;;5058901;28;20275;-63
2023/10/16 03:21:07;;;;;;;0.95;0.95;;;;;;;;;;5059123;28;20255;-63
2023/10/16 03:23:34;;;;;;;0.80;0.70;;;;;;;;;;5058485;28;20489;-63
2023/10/16 03:26:02;;;;;;;1.45;0.88;;;;;;;;;;5058851;28;20204;-63
2023/10/16 03:28:31;;;;;;;0.95;0.80;;;;;;;;;;5058750;28;20270;-63
2023/10/16 03:31:03;;;;;;;0.85;0.85;;;;;;;;;;5058963;28;20211;-63
2023/10/16 03:33:32;;;;;;;0.90;0.90;;;;;;;;;;5058682;28;20240;-63
2023/10/16 03:36:02;;;;;;;1.42;0.90;;;;;;;;;;5058211;28;20266;-64
2023/10/16 03:38:36;;;;;;;1.02;1.00;;;;;;;;;;5058667;28;20205;-64
2023/10/16 03:41:11;;;;;;;1.17;1.00;;;;;;;;;;5058709;28;20537;-64
2023/10/16 03:43:42;;;;;;;0.90;0.90;;;;;;;;;;5058217;28;20269;-63
2023/10/16 03:46:10;;;;;;;0.90;0.90;;;;;;;;;;5057949;28;20339;-64
2023/10/16 03:48:38;;;;;;;0.90;0.90;;;;;;;;;;5058496;28;20276;-64
2023/10/16 03:51:08;;;;;;;1.10;1.00;;;;;;;;;;5058298;28;20205;-64
2023/10/16 03:53:35;;;;;;;1.10;1.00;;;;;;;;;;5058119;28;20634;-64
2023/10/16 03:56:04;;;;;;;1.08;0.80;;;;;;;;;;5057825;28;20296;-64
2023/10/16 03:58:34;;;;;;;0.80;0.80;;;;;;;;;;5057616;28;20208;-64
2023/10/16 04:01:07;;;;;;;0.77;0.77;;;;;;;;;;5058267;28;20237;-64
2023/10/16 04:03:46;;;;;;;0.90;0.80;;;;;;;;;;5057542;28;20205;-64
2023/10/16 04:06:19;;;;;;;1.02;0.93;;;;;;;;;;5057826;28;20593;-64
2023/10/16 04:08:46;;;;;;;1.02;0.80;;;;;;;;;;5058054;28;20205;-64
2023/10/16 04:11:14;;;;;;;0.70;0.70;;;;;;;;;;5057126;28;20200;-64
2023/10/16 04:13:47;;;;;;;0.82;0.82;;;;;;;;;;5056799;28;20220;-64
2023/10/16 04:16:30;;;;;;;1.20;1.10;;;;;;;;;;5057171;28;20212;-64
2023/10/16 04:19:07;;;;;;;1.10;1.00;;;;;;;;;;5057760;28;20205;-64
2023/10/16 04:21:40;;;;;;;0.90;0.90;;;;;;;;;;5057623;28;20204;-64
2023/10/16 04:24:30;;;;;;;0.88;0.88;;;;;;;;;;5057252;28;20505;-64
2023/10/16 04:27:22;;;;;;;0.85;0.77;;;;;;;;;;5057261;28;20205;-64
2023/10/16 04:29:49;;;;;;;1.05;0.98;;;;;;;;;;5055907;28;20196;-64
2023/10/16 04:32:20;;;;;;;1.10;1.00;;;;;;;;;;5057260;28;20205;-64
2023/10/16 04:34:53;;;;;;;0.80;0.80;;;;;;;;;;5056862;28;20197;-64
2023/10/16 04:37:29;;;;;;;0.80;0.80;;;;;;;;;;5056682;28;20266;-64
2023/10/16 04:43:07;;;;;;;0.90;0.90;;;;;;;;;;5055975;28;20188;-64
2023/10/16 04:45:59;;;;;;;1.20;0.90;;;;;;;;;;5056590;28;20229;-64
2023/10/16 04:48:47;;;;;;;0.88;0.85;;;;;;;;;;5056161;28;20577;-64
2023/10/16 04:51:22;;;;;;;0.80;0.80;;;;;;;;;;5055800;28;20201;-64
2023/10/16 04:54:13;;;;;;;1.17;1.08;;;;;;;;;;5055770;28;20254;-64
2023/10/16 04:57:37;;;;;;;1.23;1.10;;;;;;;;;;5055374;28;20220;-64
2023/10/16 04:59:59;;;;;;;0.95;0.90;;;;;;;;;;5055072;28;20208;-63
2023/10/16 05:02:41;;;;;;;0.75;0.75;;;;;;;;;;5053767;28;20193;-63
2023/10/16 05:08:13;;;;;;;1.10;1.00;;;;;;;;;;5054948;28;20196;-63
2023/10/16 05:11:22;;;;;;;1.10;1.00;;;;;;;;;;5055170;28;20308;-63
2023/10/16 05:13:43;;;;;;;1.45;1.10;;;;;;;;;;5054506;28;20205;-64
2023/10/16 05:16:30;;;;;;;1.20;0.98;;;;;;;;;;5054188;28;20825;-64
2023/10/16 05:19:04;;;;;;;1.00;1.00;;;;;;;;;;5054519;28;20239;-64
2023/10/16 06:14:16;;;;;;;21.13;19.00;;;;;;;;;;5022283;28;20204;-62
2023/10/16 06:16:46;;;;;;;20.77;18.77;;;;;;;;;;5058049;28;20303;-63
2023/10/16 06:19:18;;;;;;;19.90;18.00;;;;;;;;;;5058090;28;20201;-63
2023/10/16 06:21:48;;;;;;;20.58;18.58;;;;;;;;;;5058339;28;20224;-63
2023/10/16 06:24:26;;;;;;;21.02;18.90;;;;;;;;;;5057484;28;20228;-62
2023/10/16 06:26:54;;;;;;;20.80;18.85;;;;;;;;;;5057136;28;20529;-62
2023/10/16 06:29:24;;;;;;;21.08;19.00;;;;;;;;;;5058459;28;20204;-62
2023/10/16 06:31:58;;;;;;;21.10;18.98;;;;;;;;;;5058361;28;20581;-62
2023/10/16 06:34:25;;;;;;;19.45;17.75;;;;;;;;;;5057523;28;20200;-63
2023/10/16 06:36:53;;;;;;;19.55;17.75;;;;;;;;;;5058976;28;20220;-63
2023/10/16 06:39:35;;;;;;;20.10;18.20;;;;;;;;;;5057866;28;20212;-62
2023/10/16 06:42:02;;;;;;;19.30;17.40;;;;;;;;;;5058246;28;20229;-62
2023/10/16 06:44:33;;;;;;;18.40;16.60;;;;;;;;;;5057139;28;20225;-63
2023/10/16 06:47:02;;;;;;;18.77;16.90;;;;;;;;;;5057426;28;20251;-62
2023/10/16 06:49:35;;;;;;;17.67;16.05;;;;;;;;;;5057524;28;20299;-62
2023/10/16 06:52:04;;;;;;;18.10;16.20;;;;;;;;;;5057665;28;20229;-62
2023/10/16 06:54:32;;;;;;;16.65;15.05;;;;;;;;;;5057264;28;20225;-62
2023/10/16 06:57:04;;;;;;;17.23;15.60;;;;;;;;;;5056613;28;20267;-62
2023/10/16 06:59:32;;;;;;;17.13;15.52;;;;;;;;;;5057050;28;20208;-63
2023/10/16 07:02:00;;;;;;;16.27;14.82;;;;;;;;;;5057425;28;20197;-62
2023/10/16 07:04:29;;;;;;;16.23;14.63;;;;;;;;;;5056849;28;20217;-62
2023/10/16 07:06:57;;;;;;;16.00;14.40;;;;;;;;;;5055718;28;20205;-62
2023/10/16 07:09:35;;;;;;;15.80;14.23;;;;;;;;;;5057663;28;20236;-62
2023/10/16 07:12:04;;;;;;;15.35;13.95;;;;;;;;;;5057360;28;20201;-63
2023/10/16 07:14:31;;;;;;;15.48;13.88;;;;;;;;;;5057063;28;20483;-62
2023/10/16 07:17:00;;;;;;;14.45;13.05;;;;;;;;;;5057731;28;20460;-62
2023/10/16 07:19:28;;;;;;;14.82;13.32;;;;;;;;;;5056622;28;20255;-62
2023/10/16 07:21:56;;;;;;;14.20;12.90;;;;;;;;;;5056745;28;20220;-62
2023/10/16 07:24:24;;;;;;;14.88;13.38;;;;;;;;;;5056007;28;20201;-62
2023/10/16 07:26:51;;;;;;;13.63;12.25;;;;;;;;;;5056084;28;20591;-62
2023/10/16 07:29:21;;;;;;;12.98;11.73;;;;;;;;;;5056573;28;20216;-62
2023/10/16 07:31:53;;;;;;;14.05;12.85;;;;;;;;;;5056598;28;20291;-62
2023/10/16 07:34:31;;;;;;;13.75;12.35;;;;;;;;;;5056342;28;20294;-62
2023/10/16 07:37:01;;;;;;;12.70;11.60;;;;;;;;;;5055695;28;20209;-62
2023/10/16 07:39:29;;;;;;;12.75;11.55;;;;;;;;;;5055630;28;20267;-62
2023/10/16 07:41:56;;;;;;;12.35;11.10;;;;;;;;;;5056564;28;20205;-63
2023/10/16 07:44:27;;;;;;;11.57;10.48;;;;;;;;;;5056340;28;20598;-62
2023/10/16 07:46:54;;;;;;;11.77;10.73;;;;;;;;;;5056065;28;20535;-62
2023/10/16 07:49:25;;;;;;;10.88;9.98;;;;;;;;;;5055858;28;20205;-62
2023/10/16 07:51:55;;;;;;;10.52;9.50;;;;;;;;;;5056892;28;20209;-62
2023/10/16 07:54:23;;;;;;;11.30;10.25;;;;;;;;;;5056025;28;20260;-63
2023/10/16 07:56:51;;;;;;;11.13;10.02;;;;;;;;;;5055892;28;20204;-62
2023/10/16 07:59:19;;;;;;;11.30;10.20;;;;;;;;;;5055990;28;20263;-62
2023/10/16 08:01:52;;;;;;;11.05;10.05;;;;;;;;;;5056007;28;20209;-63
2023/10/16 08:07:09;;;;;;;9.73;8.82;;;;;;;;;;5055047;28;20486;-68
2023/10/16 08:09:57;;;;;;;9.43;8.57;;;;;;;;;;5056428;28;20224;-62
2023/10/16 08:12:35;;;;;;;10.63;9.50;;;;;;;;;;5055947;28;20213;-63
2023/10/16 08:15:08;;;;;;;9.05;8.10;;;;;;;;;;5055982;28;20216;-64
2023/10/16 08:17:36;;;;;;;9.90;8.93;;;;;;;;;;5056003;28;20624;-63
2023/10/16 08:20:08;;;;;;;9.48;8.57;;;;;;;;;;5054895;28;20211;-63
2023/10/16 08:22:35;;;;;;;9.93;8.93;;;;;;;;;;5055710;28;20641;-64
2023/10/16 08:25:04;;;;;;;9.25;8.35;;;;;;;;;;5055646;28;20221;-62
2023/10/16 08:27:49;;;;;;;8.70;7.93;;;;;;;;;;5055119;28;20209;-63
2023/10/16 08:30:32;;;;;;;9.07;8.27;;;;;;;;;;5055764;28;20219;-63
2023/10/16 08:33:07;;;;;;;8.73;7.88;;;;;;;;;;5054173;28;20205;-63
2023/10/16 08:35:39;;;;;;;8.77;7.97;;;;;;;;;;5055118;28;20611;-62
2023/10/16 08:38:11;;;;;;;8.23;7.43;;;;;;;;;;5054329;28;20297;-62
2023/10/16 08:40:44;;;;;;;7.75;7.13;;;;;;;;;;5054824;28;20231;-63
2023/10/16 08:43:17;;;;;;;8.27;7.47;;;;;;;;;;5055317;28;20672;-63
2023/10/16 08:45:48;;;;;;;8.35;7.65;;;;;;;;;;5054356;28;20228;-62
2023/10/16 08:48:18;;;;;;;8.13;7.32;;;;;;;;;;5055564;28;20201;-63
2023/10/16 08:50:52;;;;;;;7.63;6.95;;;;;;;;;;5055248;28;20205;-62
2023/10/16 08:53:32;;;;;;;7.38;6.70;;;;;;;;;;5054299;28;20232;-63
2023/10/16 08:56:07;;;;;;;7.47;6.88;;;;;;;;;;5055000;28;20578;-64
2023/10/16 08:58:39;;;;;;;7.10;6.43;;;;;;;;;;5054505;28;20200;-62
2023/10/16 09:01:08;;;;;;;7.43;6.60;;;;;;;;;;5055502;28;20610;-64
2023/10/16 09:03:38;;;;;;;6.80;6.20;;;;;;;;;;5055286;28;20251;-62
2023/10/16 09:06:06;;;;;;;6.95;5.93;;;;;;;;;;5054410;28;20337;-62
2023/10/16 09:08:35;;;;;;;7.18;6.45;;;;;;;;;;5054928;28;20205;-62
2023/10/16 09:11:06;;;;;;;7.40;6.70;;;;;;;;;;5054008;28;20300;-64
2023/10/16 09:13:36;;;;;;;6.65;5.97;;;;;;;;;;5054724;28;20236;-64
2023/10/16 09:16:07;;;;;;;6.03;5.53;;;;;;;;;;5053920;28;20247;-62
2023/10/16 09:18:36;;;;;;;6.57;5.97;;;;;;;;;;5054674;28;20269;-62
2023/10/16 09:21:13;;;;;;;6.18;5.68;;;;;;;;;;5054613;28;20205;-62
2023/10/16 09:23:42;;;;;;;6.30;5.70;;;;;;;;;;5054973;28;20216;-63
2023/10/16 09:26:16;;;;;;;6.32;5.72;;;;;;;;;;5054814;28;20333;-62
2023/10/16 09:28:44;;;;;;;6.40;5.70;;;;;;;;;;5054912;28;20558;-62
2023/10/16 09:31:17;;;;;;;5.82;5.25;;;;;;;;;;5057835;28;20211;-62
2023/10/16 09:33:44;;;;;;;5.85;5.35;;;;;;;;;;5058746;28;20201;-62
2023/10/16 09:36:21;;;;;;;6.20;5.57;;;;;;;;;;5058540;28;20209;-62
2023/10/16 09:38:51;;;;;;;6.20;5.60;;;;;;;;;;5059013;28;20236;-63
2023/10/16 09:44:36;;;;;;;5.28;4.78;;;;;;;;;;4998288;28;20744;-62
2023/10/16 09:47:25;;;;;;;6.13;5.53;;;;;;;;;;5058386;28;20494;-62
2023/10/16 09:49:53;;;;;;;5.60;5.10;;;;;;;;;;5057892;28;20216;-62
2023/10/16 09:52:21;;;;;;;5.15;4.65;;;;;;;;;;5057796;28;20595;-62
2023/10/16 09:54:49;;;;;;;6.38;4.78;;;;;;;;;;5058020;28;20248;-62
2023/10/16 09:57:22;;;;;;;5.68;5.18;;;;;;;;;;5057596;28;20205;-62
2023/10/16 10:00:00;;;;;;;6.57;4.90;;;;;;;;;;5056997;28;20629;-62
2023/10/16 10:02:27;;;;;;;5.22;4.72;;;;;;;;;;5057134;28;20696;-62
2023/10/16 10:05:01;;;;;;;4.93;4.43;;;;;;;;;;5057337;28;20215;-62
2023/10/16 10:07:35;;;;;;;4.50;4.10;;;;;;;;;;5057712;28;20227;-62
2023/10/16 10:11:04;;;;;;;5.18;4.57;;;;;;;;;;5056481;28;20205;-63
2023/10/16 10:12:57;;;;;;;4.43;4.03;;;;;;;;;;5057882;28;20236;-64
2023/10/16 10:15:26;;;;;;;4.57;4.18;;;;;;;;;;5057631;28;20205;-64
2023/10/16 10:17:55;;;;;;;4.70;4.30;;;;;;;;;;5057230;28;20201;-64
2023/10/16 10:20:26;;;;;;;4.57;4.07;;;;;;;;;;5057065;28;20270;-64
2023/10/16 10:22:59;;;;;;;4.18;3.80;;;;;;;;;;5057521;28;20220;-64
2023/10/16 10:25:35;;;;;;;4.20;3.58;;;;;;;;;;5056881;28;20270;-63
2023/10/16 10:28:09;;;;;;;4.50;4.07;;;;;;;;;;5057247;28;20200;-64
2023/10/16 10:30:39;;;;;;;3.90;3.60;;;;;;;;;;5057471;28;20209;-63
2023/10/16 10:33:07;;;;;;;4.18;3.75;;;;;;;;;;5056429;28;20205;-63
2023/10/16 10:35:39;;;;;;;4.13;3.78;;;;;;;;;;5057237;28;20252;-64
2023/10/16 10:38:18;;;;;;;4.30;3.88;;;;;;;;;;5056317;28;20548;-64
2023/10/16 10:41:03;;;;;;;4.03;3.63;;;;;;;;;;5056100;28;20201;-62
2023/10/16 10:43:48;;;;;;;4.07;3.20;;;;;;;;;;5048377;28;20231;-62
2023/10/16 10:46:27;;;;;;;3.47;3.17;;;;;;;;;;5056438;28;20260;-62
2023/10/16 10:48:56;;;;;;;3.58;3.28;;;;;;;;;;5056003;28;20205;-62
2023/10/16 10:51:24;;;;;;;3.65;3.25;;;;;;;;;;5056444;28;20466;-62
2023/10/16 10:53:54;;;;;;;4.07;3.28;;;;;;;;;;5055678;28;20232;-62
2023/10/16 10:56:22;;;;;;;3.25;2.95;;;;;;;;;;5056150;28;20201;-63
2023/10/16 10:58:50;;;;;;;3.45;3.10;;;;;;;;;;5056303;28;20292;-62
2023/10/16 11:01:26;;;;;;;3.20;2.90;;;;;;;;;;5055414;28;20212;-63
2023/10/16 11:03:55;;;;;;;3.90;3.03;;;;;;;;;;5056601;28;20216;-63
2023/10/16 11:06:32;;;;;;;3.83;3.20;;;;;;;;;;5055493;28;20221;-62
2023/10/16 11:09:10;;;;;;;3.88;3.58;;;;;;;;;;5056041;28;20204;-62
2023/10/16 11:11:39;;;;;;;3.80;3.40;;;;;;;;;;5055854;28;20339;-62
2023/10/16 11:14:07;;;;;;;4.22;3.50;;;;;;;;;;5056078;28;20574;-62
2023/10/16 11:16:34;;;;;;;3.75;3.25;;;;;;;;;;5055738;28;20192;-62
2023/10/16 11:19:08;;;;;;;4.88;3.45;;;;;;;;;;5055354;28;20223;-62
2023/10/16 11:21:37;;;;;;;3.42;3.10;;;;;;;;;;5056092;28;20205;-63
2023/10/16 11:24:05;;;;;;;3.63;3.13;;;;;;;;;;5056126;28;20480;-62
2023/10/16 11:26:33;;;;;;;3.63;3.30;;;;;;;;;;5056231;28;20235;-64
2023/10/16 11:29:01;;;;;;;3.53;2.83;;;;;;;;;;5054543;28;20209;-62
2023/10/16 11:31:29;;;;;;;4.20;3.00;;;;;;;;;;5055636;28;20668;-62
2023/10/16 11:34:03;;;;;;;7.07;3.47;;;;;;;;;;5055260;28;20208;-62
2023/10/16 11:36:34;;;;;;;3.30;3.00;;;;;;;;;;5055872;28;20220;-62
2023/10/16 11:39:01;;;;;;;5.63;3.08;;;;;;;;;;5056222;28;20583;-63
2023/10/16 11:41:29;;;;;;;5.63;2.80;;;;;;;;;;5055639;28;20204;-64
2023/10/16 11:44:01;;;;;;;6.45;3.20;;;;;;;;;;5055096;28;20248;-62
2023/10/16 11:46:33;;;;;;;3.35;2.67;;;;;;;;;;5055015;28;20610;-62
2023/10/16 11:49:17;;;;;;;4.80;2.78;;;;;;;;;;5054520;28;20308;-62
2023/10/16 11:51:47;;;;;;;4.00;2.63;;;;;;;;;;5054668;28;20208;-63
2023/10/16 11:54:19;;;;;;;5.70;2.90;;;;;;;;;;5054962;28;20249;-62
2023/10/16 11:56:48;;;;;;;5.20;2.38;;;;;;;;;;5055007;28;20201;-62
2023/10/16 11:59:19;;;;;;;4.95;2.40;;;;;;;;;;5054462;28;20522;-62
2023/10/16 12:01:46;;;;;;;3.17;2.25;;;;;;;;;;5055131;28;20567;-62
2023/10/16 12:04:17;;;;;;;3.63;2.30;;;;;;;;;;5054048;28;20201;-62
2023/10/16 12:06:45;;;;;;;5.93;2.53;;;;;;;;;;5055142;28;20255;-62
2023/10/16 12:09:19;;;;;;;5.40;2.20;;;;;;;;;;5055478;28;20223;-62
2023/10/16 12:11:47;;;;;;;3.72;2.30;;;;;;;;;;5055082;28;20257;-63
2023/10/16 12:14:14;;;;;;;4.40;1.95;;;;;;;;;;5055137;28;20205;-62
2023/10/16 12:16:44;;;;;;;3.72;2.03;;;;;;;;;;5054873;28;20200;-63
2023/10/16 12:19:12;;;;;;;2.65;1.80;;;;;;;;;;5053691;28;20244;-62
2023/10/16 12:21:39;;;;;;;3.35;1.83;;;;;;;;;;5054733;28;20212;-62
2023/10/16 12:24:07;;;;;;;3.35;2.00;;;;;;;;;;5053723;28;20211;-62
2023/10/16 12:26:35;;;;;;;3.40;1.90;;;;;;;;;;5055159;28;20239;-62
2023/10/16 12:29:03;;;;;;;2.88;1.85;;;;;;;;;;5054401;28;20244;-63
2023/10/16 12:31:30;;;;;;;4.80;2.20;;;;;;;;;;5054508;28;20212;-63
2023/10/16 12:33:59;;;;;;;3.88;1.85;;;;;;;;;;5053753;28;20299;-63
2023/10/16 12:36:27;;;;;;;2.08;1.60;;;;;;;;;;5054164;28;20192;-62
2023/10/16 12:38:54;;;;;;;2.42;1.70;;;;;;;;;;5053693;28;20217;-63
2023/10/16 12:41:23;;;;;;;3.65;1.92;;;;;;;;;;5054299;28;20212;-62
2023/10/16 12:43:52;;;;;;;7.47;5.38;;;;;;;;;;5054798;28;20223;-62
2023/10/16 12:46:19;;;;;;;34.05;21.08;;;;;;;;;;5053868;28;20235;-62
2023/10/16 12:48:46;;;;;;;37.75;24.40;;;;;;;;;;5053579;28;20211;-62
2023/10/16 12:51:13;;;;;;;33.08;20.63;;;;;;;;;;5053192;28;20203;-62
2023/10/16 12:53:41;;;;;;;29.98;19.10;;;;;;;;;;5052532;28;20529;-62
2023/10/16 12:56:12;;;;;;;27.83;18.75;;;;;;;;;;5052738;28;20832;-62
2023/10/16 12:58:39;;;;;;;27.50;17.50;;;;;;;;;;5053732;28;20204;-62
2023/10/16 13:01:10;;;;;;;24.10;16.70;;;;;;;;;;5054519;28;20204;-62
2023/10/16 13:03:37;;;;;;;23.63;14.30;;;;;;;;;;5053350;28;20205;-62
2023/10/16 13:06:06;;;;;;;18.83;13.48;;;;;;;;;;5052807;28;20212;-62
2023/10/16 13:08:34;;;;;;;18.52;12.75;;;;;;;;;;5053669;28;20209;-62
2023/10/16 13:11:02;;;;;;;17.17;11.65;;;;;;;;;;5054088;28;20279;-62
2023/10/16 13:13:29;;;;;;;15.40;10.88;;;;;;;;;;5054015;28;20217;-63
2023/10/16 13:15:58;;;;;;;18.02;10.70;;;;;;;;;;5053924;28;20205;-62
2023/10/16 13:18:30;;;;;;;13.75;9.90;;;;;;;;;;5054273;28;20266;-62
2023/10/16 13:21:04;;;;;;;14.40;9.52;;;;;;;;;;5053961;28;20212;-62
2023/10/16 13:23:33;;;;;;;13.50;8.73;;;;;;;;;;5054166;28;20205;-62
2023/10/16 13:26:00;;;;;;;11.80;8.40;;;;;;;;;;5054086;28;20672;-62
2023/10/16 13:28:29;;;;;;;13.63;8.50;;;;;;;;;;5053716;28;20228;-62
2023/10/16 13:30:56;;;;;;;12.55;8.20;;;;;;;;;;5053424;28;20232;-62
2023/10/16 13:33:24;;;;;;;12.15;7.35;;;;;;;;;;5053979;28;20197;-62
2023/10/16 13:35:54;;;;;;;10.48;6.75;;;;;;;;;;5053292;28;20204;-62
2023/10/16 13:38:25;;;;;;;10.35;7.30;;;;;;;;;;5053214;28;20208;-63
2023/10/16 13:40:53;;;;;;;8.40;6.43;;;;;;;;;;5053366;28;20217;-62
2023/10/16 13:43:20;;;;;;;9.52;6.57;;;;;;;;;;5053205;28;20483;-63
2023/10/16 13:45:50;;;;;;;9.45;6.35;;;;;;;;;;5053470;28;20205;-62
2023/10/16 13:48:21;;;;;;;8.85;6.13;;;;;;;;;;5053576;28;20284;-62
2023/10/16 13:50:48;;;;;;;10.10;6.40;;;;;;;;;;5052804;28;20538;-62
2023/10/16 13:53:19;;;;;;;9.02;6.15;;;;;;;;;;5053998;28;20295;-62
2023/10/16 13:55:52;;;;;;;7.97;5.60;;;;;;;;;;5052817;28;20304;-63
2023/10/16 13:58:20;;;;;;;7.85;5.53;;;;;;;;;;5052732;28;20258;-63
2023/10/16 14:00:48;;;;;;;8.20;6.13;;;;;;;;;;5052783;28;20209;-63
2023/10/16 14:03:18;;;;;;;7.32;5.50;;;;;;;;;;5053425;28;20208;-62
2023/10/16 14:05:48;;;;;;;7.53;5.82;;;;;;;;;;5053140;28;20266;-63
2023/10/16 14:08:15;;;;;;;7.38;5.40;;;;;;;;;;5053377;28;20290;-63
2023/10/16 14:10:49;;;;;;;7.72;5.18;;;;;;;;;;5053244;28;20213;-62
2023/10/16 14:13:19;;;;;;;6.15;4.90;;;;;;;;;;5052665;28;20201;-63
2023/10/16 14:15:47;;;;;;;7.30;5.50;;;;;;;;;;5053825;28;20201;-63
2023/10/16 14:18:20;;;;;;;6.35;4.72;;;;;;;;;;5056387;28;20239;-63
2023/10/16 14:20:48;;;;;;;7.10;5.50;;;;;;;;;;5055927;28;20286;-62
2023/10/16 14:23:15;;;;;;;6.28;4.85;;;;;;;;;;5057108;28;20204;-63
2023/10/16 14:25:49;;;;;;;7.10;4.80;;;;;;;;;;5056781;28;20489;-62
2023/10/16 14:28:33;;;;;;;5.82;4.53;;;;;;;;;;5056465;28;20611;-62
2023/10/16 14:31:01;;;;;;;7.47;4.57;;;;;;;;;;5055516;28;20658;-63
2023/10/16 14:33:30;;;;;;;6.80;4.22;;;;;;;;;;5056208;28;20635;-63
2023/10/16 14:35:58;;;;;;;6.00;4.25;;;;;;;;;;5056217;28;20205;-62
2023/10/16 14:38:25;;;;;;;5.90;4.13;;;;;;;;;;5056060;28;20228;-62
2023/10/16 14:40:59;;;;;;;5.20;3.80;;;;;;;;;;5056046;28;20213;-62
2023/10/16 14:43:26;;;;;;;6.07;4.10;;;;;;;;;;5055952;28;20197;-63
2023/10/16 14:45:54;;;;;;;4.75;3.97;;;;;;;;;;5056236;28;20205;-62
2023/10/16 14:48:23;;;;;;;7.05;4.00;;;;;;;;;;5056351;28;20264;-62
2023/10/16 14:50:51;;;;;;;5.15;3.70;;;;;;;;;;5056224;28;20236;-62
2023/10/16 14:53:20;;;;;;;5.03;3.53;;;;;;;;;;5055711;28;20212;-62
2023/10/16 14:55:49;;;;;;;4.53;3.60;;;;;;;;;;5056308;28;20205;-62
2023/10/16 14:58:18;;;;;;;4.72;3.45;;;;;;;;;;5056186;28;20296;-62
2023/10/16 15:00:48;;;;;;;4.63;3.50;;;;;;;;;;5056113;28;20689;-63
2023/10/16 15:03:16;;;;;;;3.50;3.20;;;;;;;;;;5056179;28;20201;-62
2023/10/16 15:05:45;;;;;;;4.32;3.10;;;;;;;;;;5055614;28;20549;-62
2023/10/16 15:08:13;;;;;;;5.63;3.13;;;;;;;;;;5056149;28;20225;-62
2023/10/16 15:10:42;;;;;;;4.07;3.00;;;;;;;;;;5056165;28;20217;-63
2023/10/16 15:13:12;;;;;;;3.88;2.80;;;;;;;;;;5056426;28;20224;-62
2023/10/16 15:15:41;;;;;;;5.20;3.22;;;;;;;;;;5056344;28;20205;-63
2023/10/16 15:18:09;;;;;;;4.13;2.88;;;;;;;;;;5056014;28;20549;-63
2023/10/16 15:20:38;;;;;;;3.92;2.63;;;;;;;;;;5055957;28;20534;-62
2023/10/16 15:23:09;;;;;;;4.05;3.03;;;;;;;;;;5056099;28;20291;-62
2023/10/16 15:25:37;;;;;;;3.17;2.45;;;;;;;;;;5055621;28;20266;-62
2023/10/16 15:28:06;;;;;;;12.43;7.95;;;;;;;;;;5054692;28;20232;-62
2023/10/16 15:30:33;;;;;;;14.45;9.80;;;;;;;;;;5055555;28;20244;-62
2023/10/16 15:33:02;;;;;;;12.40;7.78;;;;;;;;;;5055871;28;20208;-62
2023/10/16 15:35:29;;;;;;;10.55;7.38;;;;;;;;;;5055451;28;20205;-63
2023/10/16 15:37:57;;;;;;;8.55;6.20;;;;;;;;;;5056644;28;20205;-62
2023/10/16 15:40:26;;;;;;;8.32;6.13;;;;;;;;;;5056339;28;20205;-62
2023/10/16 15:42:57;;;;;;;7.70;5.55;;;;;;;;;;5055734;28;20240;-62
2023/10/16 15:45:26;;;;;;;6.78;5.50;;;;;;;;;;5055888;28;20237;-63
2023/10/16 15:47:54;;;;;;;7.13;5.18;;;;;;;;;;5055791;28;20228;-63
2023/10/16 15:50:23;;;;;;;7.82;4.90;;;;;;;;;;5055925;28;20213;-63
2023/10/16 15:52:50;;;;;;;6.07;4.20;;;;;;;;;;5056273;28;20204;-62
2023/10/16 15:55:18;;;;;;;6.20;4.07;;;;;;;;;;5055453;28;20245;-63
2023/10/16 15:57:47;;;;;;;6.43;4.35;;;;;;;;;;5055025;28;20236;-62
2023/10/16 16:00:17;;;;;;;6.10;4.40;;;;;;;;;;5055299;28;20275;-62
2023/10/16 16:02:44;;;;;;;5.85;3.97;;;;;;;;;;5055231;28;20279;-62
2023/10/16 16:05:12;;;;;;;6.32;4.20;;;;;;;;;;5055283;28;20491;-62
2023/10/16 16:07:43;;;;;;;6.28;4.25;;;;;;;;;;5056018;28;20260;-63